Terminal Aerodrome Forecast
Issued by NWS Wilmington, OH

Current Version | Previous Version | Text Only | Print | Product List | Glossary Off
Versions: 1 2 3 4 5 6 7 8 9 10 11 12 13 14 15 16 17 18 19 20 21 22 23 24 25 26 27 28

000
FTUS41 KILN 012300
TAFDAY
TAF
KDAY 012322Z 0200/0224 04012KT P6SM OVC015
     FM020300 03008KT P6SM SCT015 BKN090
      TEMPO 0208/0212 5SM BR BKN015
     FM021400 04010KT P6SM SCT025 BKN100=

USA.gov is the U.S. government's official web portal to all federal, state and local government web resources and services.